Time;durP1;ratioP1;P1;durP2;ratioP2;P2;SDS_P1;SDS_P2;PMS_P1;PMS_P2;Temp;Humidity;BMP_temperature;BMP_pressure;BME280_temperature;BME280_humidity;BME280_pressure;Samples;Min_cycle;Max_cycle;Signal;HPM_P1;HPM_P2
2023/09/29 00:00:18;;;;;;;13.82;7.03;;;;;;;18.88;73.48;101691.94;7395114;19;20653;-63
2023/09/29 00:02:47;;;;;;;14.98;7.40;;;;;;;18.79;74.17;101691.97;7395759;19;20012;-63
2023/09/29 00:05:17;;;;;;;14.05;7.45;;;;;;;18.69;74.50;101695.47;7395224;19;20028;-63
2023/09/29 00:07:46;;;;;;;14.73;7.47;;;;;;;18.67;74.47;101686.72;7395234;19;20031;-63
2023/09/29 00:10:20;;;;;;;13.23;7.35;;;;;;;18.78;74.14;101691.13;7395996;19;20018;-63
2023/09/29 00:12:49;;;;;;;17.15;7.22;;;;;;;18.83;74.13;101693.38;7397120;19;20014;-62
2023/09/29 00:15:18;;;;;;;13.45;7.68;;;;;;;18.88;73.83;101691.09;7396185;19;20031;-62
2023/09/29 00:17:46;;;;;;;13.38;7.53;;;;;;;18.87;73.86;101681.34;7393887;19;20039;-62
2023/09/29 00:20:26;;;;;;;13.13;8.48;;;;;;;18.89;73.65;101682.06;7394400;19;20029;-63
2023/09/29 00:22:56;;;;;;;14.95;8.02;;;;;;;18.90;73.44;101686.44;7395928;19;20019;-63
2023/09/29 00:25:24;;;;;;;14.55;8.15;;;;;;;18.90;73.91;101683.75;7394846;19;20375;-63
2023/09/29 00:27:52;;;;;;;15.85;7.90;;;;;;;18.97;73.53;101684.88;7394081;19;20023;-63
2023/09/29 00:30:19;;;;;;;13.07;7.68;;;;;;;18.94;73.69;101679.78;7394025;19;20039;-63
2023/09/29 00:32:53;;;;;;;13.18;8.80;;;;;;;18.89;73.75;101679.38;7394246;19;20046;-63
2023/09/29 00:35:27;;;;;;;14.98;8.73;;;;;;;18.83;74.13;101685.31;7393909;19;20356;-63
2023/09/29 00:37:57;;;;;;;12.13;7.90;;;;;;;18.86;74.07;101683.19;7393090;19;20086;-64
2023/09/29 00:40:26;;;;;;;15.98;9.45;;;;;;;18.88;74.33;101683.88;7392972;19;20039;-63
2023/09/29 00:42:54;;;;;;;14.93;9.10;;;;;;;18.91;74.14;101675.53;7392335;19;20491;-61
2023/09/29 00:45:26;;;;;;;16.30;8.30;;;;;;;18.84;74.33;101684.31;7392180;19;20047;-62
2023/09/29 00:47:57;;;;;;;16.08;9.27;;;;;;;18.86;74.32;101680.50;7394095;19;20357;-63
2023/09/29 00:50:28;;;;;;;12.30;8.50;;;;;;;18.97;74.14;101677.66;7392672;19;20014;-63
2023/09/29 00:52:59;;;;;;;15.00;9.30;;;;;;;19.05;73.60;101686.84;7394105;19;20388;-63
2023/09/29 00:55:29;;;;;;;16.33;10.15;;;;;;;19.12;73.19;101678.06;7393107;19;20095;-63
2023/09/29 00:57:58;;;;;;;16.35;9.70;;;;;;;19.11;73.16;101678.19;7393377;19;20018;-62
2023/09/29 01:02:58;;;;;;;16.08;9.23;;;;;;;19.14;73.02;101680.56;7394662;19;20015;-62
2023/09/29 01:05:26;;;;;;;17.83;10.38;;;;;;;19.17;73.19;101678.44;7393617;19;20048;-62
2023/09/29 01:07:54;;;;;;;16.33;10.20;;;;;;;19.16;72.83;101674.06;7394371;19;20015;-63
2023/09/29 01:10:24;;;;;;;16.10;10.05;;;;;;;19.19;72.80;101683.66;7392181;19;20598;-62
2023/09/29 01:12:53;;;;;;;14.25;9.27;;;;;;;19.17;72.97;101670.38;7393469;19;20082;-63
2023/09/29 01:15:21;;;;;;;14.07;10.05;;;;;;;19.11;73.48;101668.28;7393624;19;20047;-62
2023/09/29 01:17:48;;;;;;;14.90;10.20;;;;;;;19.11;73.34;101660.22;7392785;19;20364;-62
2023/09/29 01:20:27;;;;;;;16.88;9.45;;;;;;;19.13;73.49;101663.63;7396093;19;20053;-62
2023/09/29 01:22:56;;;;;;;18.48;9.88;;;;;;;19.07;73.50;101647.25;7393398;19;20014;-62
2023/09/29 01:25:24;;;;;;;16.52;10.25;;;;;;;19.04;73.90;101653.78;7392637;19;20039;-62
2023/09/29 01:27:54;;;;;;;14.98;10.02;;;;;;;19.00;73.86;101655.03;7392533;19;20034;-63
2023/09/29 01:30:22;;;;;;;15.88;10.77;;;;;;;18.97;74.30;101648.13;7391499;19;20023;-63
2023/09/29 01:32:51;;;;;;;14.40;9.77;;;;;;;18.98;74.07;101647.13;7391533;19;20373;-63
2023/09/29 01:35:27;;;;;;;12.93;9.00;;;;;;;18.89;74.21;101648.03;7393102;19;20023;-63
2023/09/29 01:37:59;;;;;;;16.70;11.45;;;;;;;18.80;75.11;101651.56;7390111;19;20014;-63
2023/09/29 01:40:28;;;;;;;15.95;10.52;;;;;;;18.67;75.42;101646.47;7392475;19;20015;-63
2023/09/29 01:42:56;;;;;;;14.38;11.43;;;;;;;18.77;75.11;101651.84;7392163;19;20538;-64
2023/09/29 01:45:25;;;;;;;14.20;10.15;;;;;;;18.83;74.93;101651.28;7389912;19;20025;-64
2023/09/29 01:47:54;;;;;;;16.13;10.63;;;;;;;18.70;75.13;101642.66;7392402;19;20022;-64
2023/09/29 01:50:23;;;;;;;18.95;12.00;;;;;;;18.72;75.37;101643.38;7392167;19;20381;-64
2023/09/29 01:52:51;;;;;;;14.43;10.55;;;;;;;18.75;75.22;101632.38;7392213;19;20018;-64
2023/09/29 01:55:19;;;;;;;16.30;10.00;;;;;;;18.83;74.95;101639.69;7391967;19;20018;-64
2023/09/29 01:57:49;;;;;;;15.93;11.30;;;;;;;18.80;74.89;101630.09;7391775;19;20347;-64
2023/09/29 02:00:35;;;;;;;18.63;10.80;;;;;;;18.72;75.39;101633.50;7390198;19;20077;-64
2023/09/29 02:03:06;;;;;;;17.88;12.35;;;;;;;18.67;75.65;101637.59;7392002;19;20046;-64
2023/09/29 02:05:34;;;;;;;15.32;9.77;;;;;;;18.65;75.62;101632.34;7391299;19;20611;-64
2023/09/29 02:08:05;;;;;;;16.38;11.43;;;;;;;18.71;75.70;101626.44;7388440;19;20022;-64
2023/09/29 02:10:32;;;;;;;14.30;10.73;;;;;;;18.66;75.45;101631.38;7392238;19;20406;-64
2023/09/29 02:13:03;;;;;;;18.63;12.20;;;;;;;18.65;75.34;101628.81;7392257;19;20015;-63
2023/09/29 02:15:35;;;;;;;17.40;11.05;;;;;;;18.65;75.76;101628.81;7391496;19;20035;-63
2023/09/29 02:18:04;;;;;;;16.95;11.70;;;;;;;18.66;75.90;101623.31;7390484;19;20479;-63
2023/09/29 02:20:32;;;;;;;15.43;10.82;;;;;;;18.66;76.14;101623.31;7391221;19;20382;-63
2023/09/29 02:23:02;;;;;;;15.05;11.43;;;;;;;18.79;75.15;101622.19;7391430;19;20030;-63
2023/09/29 02:25:29;;;;;;;15.00;11.57;;;;;;;18.87;75.05;101627.66;7391451;19;20035;-63
2023/09/29 02:27:59;;;;;;;17.42;13.35;;;;;;;18.91;74.72;101626.38;7390677;19;20022;-63
2023/09/29 02:30:29;;;;;;;16.40;11.77;;;;;;;18.92;74.54;101623.53;7390844;19;20014;-63
2023/09/29 02:32:57;;;;;;;15.73;12.02;;;;;;;18.98;74.28;101614.06;7390547;19;20021;-63
2023/09/29 02:35:25;;;;;;;21.17;12.57;;;;;;;18.97;74.52;101613.22;7390886;19;20356;-63
2023/09/29 02:37:52;;;;;;;18.58;13.90;;;;;;;18.96;74.58;101616.03;7390591;19;20023;-63
2023/09/29 02:40:20;;;;;;;15.55;12.10;;;;;;;19.01;74.24;101612.94;7391032;19;20120;-63
2023/09/29 02:42:48;;;;;;;17.60;12.65;;;;;;;19.04;74.29;101612.63;7389500;19;20035;-63
2023/09/29 02:45:15;;;;;;;14.73;12.48;;;;;;;19.05;74.16;101608.97;7391361;19;20047;-64
2023/09/29 02:47:47;;;;;;;17.58;13.27;;;;;;;19.05;73.90;101611.66;7389858;19;20410;-63
2023/09/29 02:50:16;;;;;;;17.52;12.65;;;;;;;18.98;74.36;101611.41;7389636;19;20014;-63
2023/09/29 02:52:44;;;;;;;15.85;12.65;;;;;;;18.96;74.67;101613.38;7390586;19;20010;-64
2023/09/29 02:55:15;;;;;;;16.25;12.35;;;;;;;19.02;74.25;101602.03;7388591;19;20348;-64
2023/09/29 02:57:44;;;;;;;17.52;13.60;;;;;;;19.04;74.07;101599.22;7394507;19;20018;-64
2023/09/29 03:00:21;;;;;;;17.88;13.32;;;;;;;19.08;73.64;101600.59;7394206;19;20018;-64
2023/09/29 03:02:53;;;;;;;19.65;13.85;;;;;;;19.02;74.31;101604.72;7399554;19;20361;-64
2023/09/29 03:05:22;;;;;;;18.27;12.63;;;;;;;19.07;74.04;101598.91;7398146;19;20018;-64
2023/09/29 03:07:49;;;;;;;18.70;12.35;;;;;;;19.04;74.15;101594.72;7396217;19;20389;-64
2023/09/29 03:10:26;;;;;;;17.70;13.13;;;;;;;19.00;74.27;101593.28;7399461;19;20493;-64
2023/09/29 03:12:56;;;;;;;17.92;12.70;;;;;;;19.06;73.85;101586.50;7397204;19;20519;-64
2023/09/29 03:15:26;;;;;;;17.55;13.27;;;;;;;19.04;73.74;101588.47;7397660;19;20022;-61
2023/09/29 03:17:55;;;;;;;16.40;12.80;;;;;;;19.08;74.00;101592.53;7396949;19;20026;-61
2023/09/29 03:20:27;;;;;;;19.25;12.65;;;;;;;19.11;73.79;101587.72;7397498;19;20488;-63
2023/09/29 03:22:58;;;;;;;17.45;13.05;;;;;;;19.08;73.87;101590.72;7397018;19;20086;-62
2023/09/29 03:25:26;;;;;;;17.90;13.70;;;;;;;19.06;73.67;101592.69;7395627;19;21642;-70
2023/09/29 03:27:54;;;;;;;20.10;13.88;;;;;;;19.04;74.08;101592.03;7396482;19;20047;-70
2023/09/29 03:30:21;;;;;;;16.40;14.00;;;;;;;19.04;73.89;101592.03;7396779;19;20425;-70
2023/09/29 03:32:49;;;;;;;15.48;12.88;;;;;;;19.07;73.99;101594.38;7396373;19;20025;-70
2023/09/29 03:35:17;;;;;;;19.00;12.93;;;;;;;19.11;73.52;101589.56;7396643;19;20047;-70
2023/09/29 03:37:45;;;;;;;17.20;12.95;;;;;;;19.12;74.01;101593.97;7396315;19;20023;-70
2023/09/29 03:40:13;;;;;;;14.95;12.88;;;;;;;19.12;73.80;101591.28;7393169;19;20043;-70
2023/09/29 03:42:41;;;;;;;17.25;12.80;;;;;;;19.09;74.09;101589.72;7396124;19;20047;-70
2023/09/29 03:45:11;;;;;;;15.77;12.35;;;;;;;19.15;73.83;101596.34;7395681;19;20031;-71
2023/09/29 03:47:41;;;;;;;20.73;14.18;;;;;;;19.15;73.68;101593.66;7395976;19;20015;-70
2023/09/29 03:50:11;;;;;;;16.67;13.50;;;;;;;19.14;73.84;101595.50;7395295;19;20393;-70
2023/09/29 03:52:42;;;;;;;18.77;13.88;;;;;;;19.11;74.31;101597.63;7395972;19;20373;-69
2023/09/29 03:55:12;;;;;;;19.10;14.20;;;;;;;19.06;74.11;101592.69;7394594;19;20486;-70
2023/09/29 03:57:48;;;;;;;18.48;14.70;;;;;;;19.07;74.48;101594.38;7395783;19;20019;-69
2023/09/29 04:00:18;;;;;;;19.00;14.75;;;;;;;18.96;74.59;101590.06;7393105;19;20014;-69
2023/09/29 04:02:50;;;;;;;20.83;15.45;;;;;;;18.99;74.67;101583.53;7395519;19;20104;-69
2023/09/29 04:05:19;;;;;;;21.73;15.05;;;;;;;18.98;75.14;101587.22;7395626;19;20031;-70
2023/09/29 04:07:47;;;;;;;17.10;13.90;;;;;;;18.99;74.91;101586.22;7394585;19;20051;-69
2023/09/29 04:10:15;;;;;;;19.65;15.90;;;;;;;18.94;75.45;101583.16;7393851;19;20472;-70
2023/09/29 04:12:45;;;;;;;16.45;13.38;;;;;;;18.98;75.29;101581.88;7395430;19;20039;-70
2023/09/29 04:15:15;;;;;;;22.85;16.45;;;;;;;18.94;75.27;101567.88;7393914;19;20032;-69
2023/09/29 04:17:43;;;;;;;19.27;15.43;;;;;;;18.94;75.28;101559.00;7394430;19;20019;-70
2023/09/29 04:20:11;;;;;;;20.65;15.25;;;;;;;18.95;75.30;101558.84;7393005;19;20018;-70
2023/09/29 04:22:39;;;;;;;18.90;15.68;;;;;;;18.97;75.22;101556.03;7394937;19;20015;-71
2023/09/29 04:25:09;;;;;;;17.58;14.50;;;;;;;18.94;75.08;101554.47;7394576;19;20369;-71
2023/09/29 04:27:38;;;;;;;19.95;15.40;;;;;;;18.94;75.29;101557.16;7394861;19;20018;-69
2023/09/29 04:30:08;;;;;;;19.92;16.23;;;;;;;18.89;75.46;101564.81;7394437;19;20022;-71
2023/09/29 04:32:35;;;;;;;18.60;15.05;;;;;;;18.97;75.04;101561.38;7394899;19;20492;-69
2023/09/29 04:35:07;;;;;;;20.65;16.20;;;;;;;19.02;75.10;101561.78;7394579;19;20038;-70
2023/09/29 04:37:34;;;;;;;18.23;14.88;;;;;;;19.05;74.98;101560.66;7392732;19;20361;-70
2023/09/29 04:40:03;;;;;;;17.73;15.88;;;;;;;19.02;74.89;101553.72;7390608;19;20043;-70
2023/09/29 04:42:32;;;;;;;19.58;15.70;;;;;;;19.03;75.21;101551.88;7393581;19;20023;-70
2023/09/29 04:45:00;;;;;;;18.45;14.18;;;;;;;19.05;75.09;101544.53;7393883;19;20014;-70
2023/09/29 04:47:28;;;;;;;20.27;15.75;;;;;;;19.00;75.24;101536.91;7393762;19;20039;-70
2023/09/29 04:49:56;;;;;;;17.38;14.98;;;;;;;18.92;75.28;101539.50;7391872;19;20010;-70
2023/09/29 04:52:25;;;;;;;20.55;14.90;;;;;;;18.96;75.51;101540.88;7393731;19;20388;-71
2023/09/29 04:54:53;;;;;;;24.38;15.73;;;;;;;18.92;75.46;101539.50;7392397;19;20103;-71
2023/09/29 04:57:22;;;;;;;19.63;15.13;;;;;;;19.00;75.35;101531.53;7393913;19;20386;-70
2023/09/29 04:59:50;;;;;;;19.23;15.60;;;;;;;19.01;75.22;101532.41;7390974;19;20090;-70
2023/09/29 05:02:17;;;;;;;19.30;15.75;;;;;;;18.98;75.26;101534.38;7393898;19;20022;-71
2023/09/29 05:04:45;;;;;;;19.58;15.77;;;;;;;18.96;75.50;101536.38;7391810;19;20018;-69
2023/09/29 05:07:12;;;;;;;22.50;16.92;;;;;;;18.96;75.59;101546.25;7393572;19;20011;-70
2023/09/29 05:09:40;;;;;;;21.98;16.75;;;;;;;18.88;75.88;101543.47;7390780;19;20043;-70
2023/09/29 05:12:07;;;;;;;20.42;16.58;;;;;;;18.94;75.43;101524.94;7389374;19;20019;-75
2023/09/29 05:14:35;;;;;;;19.30;15.98;;;;;;;18.96;75.58;101519.41;7390030;19;20094;-74
2023/09/29 05:17:02;;;;;;;21.73;16.80;;;;;;;18.95;75.41;101512.34;7393001;19;20423;-73
2023/09/29 05:19:31;;;;;;;19.90;15.82;;;;;;;18.94;75.23;101514.19;7390398;19;20018;-69
2023/09/29 05:21:59;;;;;;;23.67;15.63;;;;;;;18.98;75.63;101525.47;7390127;19;20033;-69
2023/09/29 05:24:27;;;;;;;18.92;16.35;;;;;;;18.93;75.72;101527.78;7392989;19;20019;-69
2023/09/29 05:26:54;;;;;;;21.63;15.50;;;;;;;18.97;75.31;101523.81;7392787;19;20026;-68
2023/09/29 05:29:22;;;;;;;21.60;14.63;;;;;;;19.01;75.54;101517.13;7391093;19;20022;-69
2023/09/29 05:31:49;;;;;;;17.88;15.18;;;;;;;19.04;75.48;101522.22;7392545;19;20097;-69
2023/09/29 05:34:17;;;;;;;20.17;15.18;;;;;;;19.02;75.43;101516.13;7392694;19;20014;-69
2023/09/29 05:36:45;;;;;;;21.25;16.38;;;;;;;18.98;75.65;101509.38;7392324;19;20029;-69
2023/09/29 05:39:14;;;;;;;17.80;15.88;;;;;;;18.96;75.75;101516.72;7390509;19;20033;-69
2023/09/29 05:41:42;;;;;;;21.95;16.13;;;;;;;18.96;75.44;101516.72;7392618;19;20018;-69
2023/09/29 05:44:09;;;;;;;19.70;14.32;;;;;;;19.00;75.33;101520.78;7391129;19;20015;-69
2023/09/29 05:46:37;;;;;;;20.45;15.93;;;;;;;19.02;75.64;101508.09;7392406;19;20019;-70
2023/09/29 05:49:06;;;;;;;21.63;15.70;;;;;;;18.91;75.93;101502.91;7388960;19;20094;-68
2023/09/29 05:51:36;;;;;;;18.85;14.25;;;;;;;18.92;75.55;101504.59;7390571;19;20014;-69
2023/09/29 05:54:03;;;;;;;20.23;15.48;;;;;;;18.91;75.83;101509.13;7390680;19;20018;-68
2023/09/29 05:56:33;;;;;;;23.77;15.30;;;;;;;18.94;75.85;101505.31;7392440;19;20043;-68
2023/09/29 05:59:01;;;;;;;19.55;14.93;;;;;;;18.94;75.57;101502.63;7389911;19;20074;-68
2023/09/29 06:01:28;;;;;;;19.00;14.20;;;;;;;18.90;75.61;101501.22;7390719;19;20027;-68
2023/09/29 06:03:56;;;;;;;18.75;13.13;;;;;;;18.96;75.66;101497.94;7392047;19;20345;-68
2023/09/29 06:06:24;;;;;;;19.42;13.10;;;;;;;18.95;75.47;101497.09;7391938;19;20030;-68
2023/09/29 06:08:52;;;;;;;16.02;12.57;;;;;;;19.00;75.27;101502.00;7388322;19;20032;-68
2023/09/29 06:11:22;;;;;;;21.58;13.68;;;;;;;19.01;75.27;101492.13;7392273;19;20023;-68
2023/09/29 06:13:50;;;;;;;16.48;11.98;;;;;;;19.03;74.96;101492.81;7391155;19;20023;-68
2023/09/29 06:16:18;;;;;;;15.85;11.68;;;;;;;19.04;75.03;101484.63;7413526;19;20019;-67
2023/09/29 06:18:46;;;;;;;18.42;11.68;;;;;;;19.10;74.75;101485.84;7412255;19;20043;-67
2023/09/29 06:21:15;;;;;;;20.58;12.45;;;;;;;18.98;75.00;101483.38;7397192;19;20036;-67
2023/09/29 06:23:44;;;;;;;16.45;12.25;;;;;;;18.93;75.18;101474.94;7390409;19;20029;-67
2023/09/29 06:26:12;;;;;;;16.77;12.38;;;;;;;19.01;75.27;101484.94;7390886;19;20484;-67
2023/09/29 06:28:39;;;;;;;16.58;12.65;;;;;;;19.05;75.06;101478.25;7389907;19;20019;-67
2023/09/29 06:31:07;;;;;;;17.48;12.75;;;;;;;19.03;75.22;101482.91;7391393;19;20018;-67
2023/09/29 06:33:34;;;;;;;16.33;12.27;;;;;;;19.11;75.08;101492.91;7398619;19;20022;-67
2023/09/29 06:36:02;;;;;;;16.30;11.38;;;;;;;19.15;74.56;101500.50;7398568;19;20395;-70
2023/09/29 06:38:31;;;;;;;17.77;12.52;;;;;;;19.17;74.79;101503.06;7396965;19;20027;-71
2023/09/29 06:40:58;;;;;;;16.88;11.98;;;;;;;19.24;74.69;101507.69;7396333;19;20010;-71
2023/09/29 06:43:26;;;;;;;18.00;12.45;;;;;;;19.30;74.50;101516.13;7398315;19;20023;-71
2023/09/29 06:45:53;;;;;;;14.85;11.55;;;;;;;19.34;74.73;101522.88;7398034;19;20039;-70
2023/09/29 06:48:28;;;;;;;20.83;12.02;;;;;;;19.36;74.30;101529.78;7395449;19;20122;-72
2023/09/29 06:50:59;;;;;;;16.65;11.10;;;;;;;19.43;74.00;101528.19;7398204;19;20022;-72
2023/09/29 06:53:29;;;;;;;17.17;11.40;;;;;;;19.41;74.38;101522.09;7397467;19;20038;-72
2023/09/29 06:55:58;;;;;;;14.80;10.88;;;;;;;19.40;74.23;101527.66;7397111;19;20707;-72
2023/09/29 06:58:26;;;;;;;16.70;10.82;;;;;;;19.38;74.46;101535.84;7397911;19;20011;-71
2023/09/29 07:00:55;;;;;;;16.55;11.23;;;;;;;19.38;74.92;101533.16;7394816;19;20087;-71
2023/09/29 07:03:29;;;;;;;17.73;11.30;;;;;;;19.36;74.73;101518.19;7398135;19;20039;-71
2023/09/29 07:05:59;;;;;;;13.98;9.50;;;;;;;19.40;74.64;101530.34;7398046;19;20074;-70
2023/09/29 07:08:28;;;;;;;17.70;10.57;;;;;;;19.43;74.28;101536.25;7394071;19;20018;-70
2023/09/29 07:10:56;;;;;;;14.43;9.55;;;;;;;19.48;74.31;101525.88;7397203;19;20074;-70
2023/09/29 07:13:24;;;;;;;15.45;10.35;;;;;;;19.54;74.03;101532.50;7397518;19;20018;-70
2023/09/29 07:15:51;;;;;;;15.10;9.68;;;;;;;19.51;74.30;101542.72;7396151;19;20025;-70
2023/09/29 07:18:21;;;;;;;14.93;9.40;;;;;;;19.52;74.11;101539.84;7396049;19;20018;-70
2023/09/29 07:20:53;;;;;;;14.52;8.98;;;;;;;19.56;74.36;101530.50;7396012;19;20021;-70
2023/09/29 07:23:24;;;;;;;14.35;8.98;;;;;;;19.61;74.19;101528.22;7397258;19;20034;-69
2023/09/29 07:25:52;;;;;;;14.02;8.18;;;;;;;19.59;73.65;101530.19;7396957;19;20100;-69
2023/09/29 07:28:20;;;;;;;14.65;8.40;;;;;;;19.65;73.83;101540.38;7395463;19;20070;-69
2023/09/29 07:30:50;;;;;;;16.02;8.52;;;;;;;19.71;73.47;101534.38;7397199;19;20035;-69
2023/09/29 07:33:19;;;;;;;16.92;8.25;;;;;;;19.69;73.21;101524.78;7397435;19;20046;-68
2023/09/29 07:35:46;;;;;;;13.05;7.90;;;;;;;19.65;73.89;101508.13;7395511;19;20490;-69
2023/09/29 07:38:17;;;;;;;11.27;7.38;;;;;;;19.75;73.35;101510.72;7397919;19;20425;-68
2023/09/29 07:40:46;;;;;;;12.65;7.57;;;;;;;19.86;73.17;101520.41;7397710;19;20022;-68
2023/09/29 07:43:13;;;;;;;13.23;8.10;;;;;;;19.86;72.95;101521.25;7395254;19;20371;-68
2023/09/29 07:45:41;;;;;;;13.07;7.47;;;;;;;19.89;72.99;101517.41;7396977;19;20488;-68
2023/09/29 07:48:08;;;;;;;14.10;7.60;;;;;;;19.95;72.78;101522.97;7395848;19;20022;-70
2023/09/29 07:50:36;;;;;;;13.57;7.18;;;;;;;20.03;73.01;101524.06;7397074;19;20017;-70
2023/09/29 07:53:04;;;;;;;12.27;7.75;;;;;;;20.12;72.03;101521.28;7395316;19;20491;-70
2023/09/29 07:55:31;;;;;;;11.85;6.30;;;;;;;20.20;71.96;101524.03;7395024;19;20018;-70
2023/09/29 07:57:59;;;;;;;12.05;7.13;;;;;;;20.23;72.08;101528.25;7395866;19;20348;-72
2023/09/29 08:00:26;;;;;;;12.65;7.00;;;;;;;20.19;72.12;101524.19;7395449;19;20090;-70
2023/09/29 08:02:54;;;;;;;11.10;6.82;;;;;;;20.10;71.99;101517.88;7396865;19;20029;-72
2023/09/29 08:05:22;;;;;;;11.55;6.10;;;;;;;20.10;72.06;101507.13;7396047;19;20353;-72
2023/09/29 08:07:49;;;;;;;12.27;6.32;;;;;;;20.07;72.17;101506.59;7395285;19;20011;-72
2023/09/29 08:10:17;;;;;;;11.02;6.05;;;;;;;20.08;72.48;101517.22;7394989;19;20023;-72
2023/09/29 08:12:44;;;;;;;11.13;5.70;;;;;;;20.04;72.26;101512.31;7395734;19;20022;-71
2023/09/29 08:15:13;;;;;;;15.02;6.53;;;;;;;20.07;72.51;101525.44;7395051;19;20030;-70
2023/09/29 08:17:41;;;;;;;13.55;5.45;;;;;;;20.09;72.01;101535.03;7395331;19;20018;-69
2023/09/29 08:20:10;;;;;;;9.15;5.30;;;;;;;20.19;71.56;101533.09;7396448;19;20021;-69
2023/09/29 08:22:37;;;;;;;9.73;5.28;;;;;;;20.26;71.44;101535.16;7394709;19;20010;-68
2023/09/29 08:25:10;;;;;;;11.32;5.43;;;;;;;20.29;71.50;101529.47;7394890;19;20333;-68
2023/09/29 08:27:39;;;;;;;11.88;5.30;;;;;;;20.41;71.09;101520.13;7394523;19;20018;-69
2023/09/29 08:30:07;;;;;;;11.57;5.45;;;;;;;20.39;70.94;101490.69;7394439;19;20026;-69
2023/09/29 08:32:42;;;;;;;11.40;4.85;;;;;;;20.33;71.44;101460.88;7395005;19;20038;-68
2023/09/29 08:35:13;;;;;;;9.98;5.05;;;;;;;20.25;71.68;101476.97;7394960;19;20038;-69
2023/09/29 08:37:45;;;;;;;9.32;4.60;;;;;;;20.20;71.52;101491.75;7394510;19;20022;-68
2023/09/29 08:40:19;;;;;;;8.60;4.68;;;;;;;20.21;71.12;101506.03;7393740;19;20038;-68
2023/09/29 08:42:49;;;;;;;;;;;;;;;20.09;71.32;101507.31;7395505;19;20031;-67
2023/09/29 08:45:19;;;;;;;13.52;5.20;;;;;;;20.08;72.07;101511.84;7394568;19;19918;-68
2023/09/29 08:47:51;;;;;;;8.75;4.13;;;;;;;20.23;71.13;101516.66;7394095;19;20043;-68
2023/09/29 08:50:22;;;;;;;9.85;4.70;;;;;;;20.28;70.87;101520.56;7393380;19;20039;-69
2023/09/29 08:52:52;;;;;;;9.57;5.07;;;;;;;20.28;70.63;101523.25;7393898;19;20107;-71
2023/09/29 08:55:21;;;;;;;11.40;4.88;;;;;;;20.28;70.74;101538.53;7393535;19;20030;-71
2023/09/29 08:57:52;;;;;;;10.00;4.43;;;;;;;20.30;70.86;101529.31;7393456;19;20018;-71
2023/09/29 09:00:23;;;;;;;9.57;4.70;;;;;;;20.28;70.82;101517.03;7393205;19;20021;-71
2023/09/29 09:02:50;;;;;;;11.75;5.20;;;;;;;20.32;71.38;101526.47;7393920;19;20026;-68
2023/09/29 09:05:20;;;;;;;12.40;4.80;;;;;;;20.31;71.24;101512.16;7391849;19;20026;-67
2023/09/29 09:07:47;;;;;;;10.98;4.55;;;;;;;20.34;71.10;101497.56;7392852;19;20361;-67
2023/09/29 09:10:15;;;;;;;7.90;4.30;;;;;;;20.44;70.96;101488.34;7393143;19;20350;-67
2023/09/29 09:13:00;;;;;;;8.00;4.55;;;;;;;20.49;71.28;101481.66;7393367;19;20018;-69
2023/09/29 09:15:27;;;;;;;11.10;4.40;;;;;;;20.52;71.42;101484.91;7393097;19;20094;-68
2023/09/29 09:17:56;;;;;;;8.80;4.47;;;;;;;20.53;71.07;101483.06;7393633;19;20015;-69
2023/09/29 09:20:24;;;;;;;10.50;4.40;;;;;;;20.54;71.04;101488.28;7393144;19;20760;-69
2023/09/29 09:22:59;;;;;;;9.10;4.45;;;;;;;20.63;70.77;101492.69;7393526;19;20095;-68
2023/09/29 09:25:42;;;;;;;12.23;4.28;;;;;;;20.72;70.86;101484.66;7393065;19;20360;-68
2023/09/29 09:28:16;;;;;;;10.20;4.70;;;;;;;20.83;70.45;101478.97;7390758;19;20035;-68
2023/09/29 09:30:51;;;;;;;8.20;4.13;;;;;;;20.87;70.69;101478.53;7393366;19;20351;-67
2023/09/29 09:33:21;;;;;;;8.98;4.38;;;;;;;20.89;70.27;101478.34;7391252;19;20467;-68
2023/09/29 09:35:50;;;;;;;8.77;3.90;;;;;;;21.01;70.53;101481.59;7392969;19;20029;-69
2023/09/29 09:38:17;;;;;;;13.85;4.45;;;;;;;21.16;69.84;101478.09;7395698;19;20019;-73
2023/09/29 09:40:47;;;;;;;7.95;4.13;;;;;;;21.23;69.56;101480.13;7395528;19;20011;-73
2023/09/29 09:43:18;;;;;;;9.82;4.47;;;;;;;21.29;69.32;101472.25;7396174;19;20110;-74
2023/09/29 09:45:49;;;;;;;12.95;4.03;;;;;;;21.39;69.56;101485.59;7394239;19;20374;-71
2023/09/29 09:48:20;;;;;;;9.02;4.10;;;;;;;21.41;69.59;101475.50;7391902;19;20026;-70
2023/09/29 09:50:51;;;;;;;8.23;3.47;;;;;;;21.47;69.46;101474.81;7392413;19;20378;-71
2023/09/29 09:53:22;;;;;;;7.90;3.50;;;;;;;21.53;69.24;101478.72;7392806;19;20011;-71
2023/09/29 09:56:04;;;;;;;9.18;3.60;;;;;;;21.39;69.12;101467.56;7393773;19;20047;-69
2023/09/29 09:58:31;;;;;;;8.60;3.67;;;;;;;21.35;69.47;101476.16;7391265;19;20026;-69
2023/09/29 10:00:59;;;;;;;7.85;3.53;;;;;;;21.37;69.35;101468.75;7392400;19;20015;-69
2023/09/29 10:03:27;;;;;;;9.32;3.75;;;;;;;21.32;69.54;101476.44;7391482;19;20026;-69
2023/09/29 10:05:57;;;;;;;8.73;3.42;;;;;;;21.35;69.53;101473.44;7393492;19;20479;-69
2023/09/29 10:08:32;;;;;;;10.45;3.53;;;;;;;21.50;68.91;101468.25;7397293;19;20025;-71
2023/09/29 10:11:13;;;;;;;8.95;3.55;;;;;;;21.74;68.57;101476.34;7393136;19;20027;-69
2023/09/29 10:13:44;;;;;;;9.10;3.40;;;;;;;21.81;68.50;101480.06;7390077;19;20070;-68
2023/09/29 10:16:23;;;;;;;9.75;3.50;;;;;;;21.84;68.16;101476.19;7391855;19;20491;-68
2023/09/29 10:19:05;;;;;;;8.70;4.03;;;;;;;21.75;68.90;101478.03;7389858;19;20062;-67
2023/09/29 10:21:49;;;;;;;8.85;3.75;;;;;;;21.70;68.36;101474.16;7391629;19;20047;-67
2023/09/29 10:24:27;;;;;;;9.38;3.60;;;;;;;21.72;69.09;101466.75;7396815;19;20011;-67
2023/09/29 10:26:59;;;;;;;9.15;3.47;;;;;;;21.74;68.98;101475.50;7391911;19;20102;-69
2023/09/29 10:29:37;;;;;;;7.23;3.30;;;;;;;21.89;68.40;101466.56;7387587;19;20026;-69
2023/09/29 10:32:10;;;;;;;7.38;3.20;;;;;;;22.11;67.90;101473.13;7391289;19;20025;-68
2023/09/29 10:34:38;;;;;;;8.83;3.50;;;;;;;22.14;67.71;101464.72;7391251;19;20011;-70
2023/09/29 10:37:06;;;;;;;10.85;3.53;;;;;;;22.24;67.71;101459.13;7389195;19;20043;-68
2023/09/29 10:39:35;;;;;;;11.15;3.50;;;;;;;22.26;67.27;101458.97;7389116;19;20385;-68
2023/09/29 10:42:25;;;;;;;8.98;3.55;;;;;;;22.24;67.19;101467.22;7391880;19;20047;-69
2023/09/29 10:44:54;;;;;;;9.43;3.90;;;;;;;22.22;67.81;101457.63;7392226;19;20011;-68
2023/09/29 10:47:33;;;;;;;10.25;3.30;;;;;;;22.32;67.00;101460.94;7394755;19;20035;-69
2023/09/29 10:50:05;;;;;;;7.47;3.13;;;;;;;22.39;66.93;101467.34;7396960;19;20019;-70
2023/09/29 10:52:33;;;;;;;7.40;3.35;;;;;;;22.37;66.97;101464.84;7391682;19;20074;-72
2023/09/29 10:55:04;;;;;;;8.07;3.00;;;;;;;22.50;66.75;101460.75;7389294;19;20051;-71
2023/09/29 10:57:33;;;;;;;6.45;2.72;;;;;;;22.56;66.51;101458.19;7388755;19;20019;-71
2023/09/29 11:00:01;;;;;;;5.97;2.65;;;;;;;22.62;66.55;101456.63;7390420;19;20014;-71
2023/09/29 11:02:32;;;;;;;5.85;2.47;;;;;;;22.61;65.95;101463.91;7388447;19;20079;-72
2023/09/29 11:05:04;;;;;;;7.25;2.67;;;;;;;22.59;66.12;101465.13;7390324;19;20024;-72
2023/09/29 11:07:49;;;;;;;6.20;2.30;;;;;;;22.67;64.85;101462.38;7389871;19;20520;-70
2023/09/29 11:10:18;;;;;;;8.35;2.63;;;;;;;22.63;65.85;101442.97;7389237;19;20024;-70
2023/09/29 11:12:47;;;;;;;7.43;2.55;;;;;;;22.67;65.03;101446.19;7391023;19;20014;-72
2023/09/29 11:15:16;;;;;;;6.38;2.60;;;;;;;22.70;65.25;101450.38;7389946;19;20031;-70
2023/09/29 11:17:46;;;;;;;6.13;2.10;;;;;;;22.78;65.41;101437.69;7390966;19;20022;-71
2023/09/29 11:20:49;;;;;;;7.53;2.35;;;;;;;22.77;65.84;101441.38;7397018;19;20039;-72
2023/09/29 11:23:13;;;;;;;6.78;2.25;;;;;;;22.72;65.50;101432.97;7397738;19;20030;-71
2023/09/29 11:26:02;;;;;;;6.13;2.38;;;;;;;22.88;64.94;101429.34;7396678;19;20621;-70
2023/09/29 11:28:30;;;;;;;7.22;2.78;;;;;;;22.93;65.28;101428.84;7395590;19;20022;-72